createdAt,value
2017-06-12T00:00:10.450Z,57.28
2017-06-12T00:01:20.494Z,57.45
2017-06-12T00:02:30.848Z,57.15
2017-06-12T00:03:40.914Z,57.35
2017-06-12T00:04:51.523Z,56.96
2017-06-12T00:06:01.865Z,57.25
2017-06-12T00:07:12.219Z,57.35
2017-06-12T00:08:22.568Z,57.35
2017-06-12T00:09:32.929Z,57.25
2017-06-12T00:10:43.006Z,57.35
2017-06-12T00:11:53.336Z,56.96
2017-06-12T00:13:03.680Z,57.15
2017-06-12T00:14:13.710Z,57.06
2017-06-12T00:15:24.045Z,57.15
2017-06-12T00:16:34.402Z,57.25
2017-06-12T00:17:44.758Z,57.35
2017-06-12T00:18:54.795Z,57.06
2017-06-12T00:20:04.838Z,57.06
2017-06-12T00:21:14.873Z,57.03
2017-06-12T00:22:25.265Z,57.13
2017-06-12T00:23:35.309Z,57.03
2017-06-12T00:24:45.659Z,57.51
2017-06-12T00:25:55.996Z,57.03
2017-06-12T00:27:06.344Z,57.03
2017-06-12T00:28:16.715Z,57.22
2017-06-12T00:29:27.061Z,57.42
2017-06-12T00:30:37.112Z,57.13
2017-06-12T00:31:47.136Z,57.42
2017-06-12T00:32:57.496Z,57.42
2017-06-12T00:34:07.935Z,57.22
2017-06-12T00:35:18.280Z,57.22
2017-06-12T00:36:28.624Z,57.03
2017-06-12T00:37:38.964Z,57.03
2017-06-12T00:38:49.306Z,57.03
2017-06-12T00:39:59.329Z,57.03
2017-06-12T00:41:09.669Z,57.03
2017-06-12T00:42:20.084Z,57.22
2017-06-12T00:43:30.437Z,57.22
2017-06-12T00:44:40.468Z,57.22
2017-06-12T00:45:50.861Z,57.42
2017-06-12T00:47:00.579Z,57.42
2017-06-12T00:48:10.936Z,57.42
2017-06-12T00:49:20.983Z,57.22
2017-06-12T00:50:31.053Z,57.42
2017-06-12T00:51:41.455Z,57.22
2017-06-12T00:52:51.803Z,57.51
2017-06-12T00:54:01.224Z,57.03
2017-06-12T00:55:10.946Z,57.22
2017-06-12T00:56:21.271Z,57
2017-06-12T00:57:31.615Z,57.39
2017-06-12T00:58:41.962Z,57.2
2017-06-12T00:59:52.311Z,57
2017-06-12T01:01:02.667Z,57.1
2017-06-12T01:02:12.694Z,57.48
2017-06-12T01:03:22.423Z,57
2017-06-12T01:04:32.778Z,57.39
2017-06-12T01:05:42.817Z,57.1
2017-06-12T01:06:52.863Z,57.1
2017-06-12T01:08:03.225Z,57.1
2017-06-12T01:09:13.595Z,57.1
2017-06-12T01:10:23.931Z,57.2
2017-06-12T01:11:34.286Z,57.2
2017-06-12T01:12:44.623Z,57.1
2017-06-12T01:13:54.659Z,57.29
2017-06-12T01:15:05.014Z,57.2
2017-06-12T01:16:14.725Z,57.1
2017-06-12T01:17:24.765Z,57.1
2017-06-12T01:18:34.801Z,57.2
2017-06-12T01:19:45.147Z,57.2
2017-06-12T01:20:54.926Z,57.1
2017-06-12T01:22:05.270Z,57.1
2017-06-12T01:23:15.307Z,57.2
2017-06-12T01:24:25.639Z,57.29
2017-06-12T01:25:35.682Z,57.26
2017-06-12T01:26:46.082Z,57.29
2017-06-12T01:27:56.425Z,57.1
2017-06-12T01:29:06.751Z,57.26
2017-06-12T01:30:17.119Z,57.17
2017-06-12T01:31:27.459Z,57.1
2017-06-12T01:32:37.806Z,57.07
2017-06-12T01:33:48.144Z,57.07
2017-06-12T01:34:58.492Z,56.98
2017-06-12T01:36:08.536Z,56.91
2017-06-12T01:37:18.875Z,57
2017-06-12T01:38:29.220Z,56.81
2017-06-12T01:39:39.249Z,57.1
2017-06-12T01:40:49.288Z,56.78
2017-06-12T01:41:59.333Z,56.98
2017-06-12T01:43:09.684Z,56.88
2017-06-12T01:44:19.451Z,57.07
2017-06-12T01:45:29.797Z,57.17
2017-06-12T01:46:40.365Z,57.07
2017-06-12T01:47:50.712Z,57.07
2017-06-12T01:49:00.736Z,57.17
2017-06-12T01:50:10.763Z,57.26
2017-06-12T01:51:21.096Z,57.07
2017-06-12T01:52:31.127Z,57.26
2017-06-12T01:53:41.163Z,57.17
2017-06-12T01:54:51.506Z,57.26
2017-06-12T01:56:01.268Z,57.17
2017-06-12T01:57:11.296Z,57.04
2017-06-12T01:58:21.640Z,56.95
2017-06-12T01:59:31.996Z,57.43
2017-06-12T02:00:42.025Z,57.43
2017-06-12T02:01:52.465Z,57.43
2017-06-12T02:03:02.812Z,57.52
2017-06-12T02:04:13.163Z,57.43
2017-06-12T02:05:23.187Z,57.52
2017-06-12T02:06:32.913Z,57.52
2017-06-12T02:07:43.246Z,57.33
2017-06-12T02:08:53.581Z,57.43
2017-06-12T02:10:03.663Z,56.95
2017-06-12T02:11:14.019Z,57.33
2017-06-12T02:12:24.059Z,57.04
2017-06-12T02:13:34.140Z,56.85
2017-06-12T02:14:44.495Z,56.95
2017-06-12T02:15:54.844Z,56.95
2017-06-12T02:17:05.190Z,56.95
2017-06-12T02:18:15.222Z,56.85
2017-06-12T02:19:25.304Z,57.04
2017-06-12T02:20:35.668Z,56.76
2017-06-12T02:21:46.020Z,56.85
2017-06-12T02:22:56.373Z,57.04
2017-06-12T02:24:06.094Z,57.04
2017-06-12T02:25:16.116Z,57.14
2017-06-12T02:26:26.463Z,57.04
2017-06-12T02:27:36.819Z,57.04
2017-06-12T02:28:46.849Z,57.04
2017-06-12T02:29:57.209Z,57.01
2017-06-12T02:31:07.606Z,57.01
2017-06-12T02:32:17.646Z,57.23
2017-06-12T02:33:27.674Z,57.14
2017-06-12T02:34:38.086Z,57.23
2017-06-12T02:35:47.181Z,57.04
2017-06-12T02:36:57.576Z,57.04
2017-06-12T02:38:07.608Z,57.14
2017-06-12T02:39:17.953Z,57.14
2017-06-12T02:40:27.984Z,57.04
2017-06-12T02:41:38.322Z,57.04
2017-06-12T02:42:48.354Z,57.04
2017-06-12T02:43:58.694Z,57.14
2017-06-12T02:45:09.057Z,56.95
2017-06-12T02:46:19.394Z,57.04
2017-06-12T02:47:29.739Z,57.14
2017-06-12T02:48:40.102Z,57.04
2017-06-12T02:49:50.466Z,56.95
2017-06-12T02:51:00.812Z,57.33
2017-06-12T02:52:11.127Z,57.33
2017-06-12T02:53:21.153Z,56.85
2017-06-12T02:54:31.220Z,56.85
2017-06-12T02:55:41.578Z,56.95
2017-06-12T02:56:51.923Z,57.23
2017-06-12T02:58:01.965Z,57.04
2017-06-12T02:59:12.309Z,56.76
2017-06-12T03:00:22.679Z,56.56
2017-06-12T03:01:32.713Z,56.68
2017-06-12T03:32:58.649Z,53.86
2017-06-12T03:34:08.363Z,54.53
2017-06-12T03:35:18.694Z,55.49
2017-06-12T03:36:29.043Z,56.26
2017-06-12T03:37:39.404Z,56.26
2017-06-12T03:38:49.833Z,57.03
2017-06-12T03:40:00.181Z,57.06
2017-06-12T03:41:10.511Z,56.86
2017-06-12T03:42:20.857Z,57.43
2017-06-12T03:43:31.203Z,57.65
2017-06-12T03:44:41.538Z,57.37
2017-06-12T03:45:51.888Z,57.01
2017-06-12T03:47:01.958Z,57.11
2017-06-12T03:48:12.293Z,57.11
2017-06-12T03:49:22.333Z,57.04
2017-06-12T03:50:32.725Z,57.04
2017-06-12T03:51:42.771Z,57.07
2017-06-12T03:52:53.115Z,56.98
2017-06-12T03:54:03.463Z,57.07
2017-06-12T03:55:13.842Z,57.1
2017-06-12T03:56:24.198Z,56.62
2017-06-12T03:57:34.545Z,56.74
2017-06-12T03:58:44.581Z,56.55
2017-06-12T03:59:54.919Z,56.45
2017-06-12T04:01:04.955Z,56.26
2017-06-12T04:02:14.667Z,56.38
2017-06-12T04:03:25.013Z,56.29
2017-06-12T04:04:35.366Z,56.29
2017-06-12T04:05:45.722Z,56.29
2017-06-12T04:06:56.062Z,56.7
2017-06-12T04:08:06.096Z,56.32
2017-06-12T04:09:16.458Z,56.32
2017-06-12T04:10:26.807Z,56.51
2017-06-12T04:11:36.859Z,56.41
2017-06-12T04:12:47.200Z,56.32
2017-06-12T04:13:57.586Z,56.54
2017-06-12T04:15:07.929Z,56.12
2017-06-12T04:16:18.283Z,56.82
2017-06-12T04:17:28.326Z,56.82
2017-06-12T04:18:38.372Z,57.47
2017-06-12T04:19:48.768Z,57.5
2017-06-12T04:20:58.806Z,57.02
2017-06-12T04:22:08.550Z,56.82
2017-06-12T04:23:18.901Z,56.54
2017-06-12T04:24:29.258Z,56.82
2017-06-12T04:25:39.678Z,56.57
2017-06-12T04:26:49.711Z,56.57
2017-06-12T04:27:59.437Z,56.37
2017-06-12T04:29:09.785Z,56.47
2017-06-12T04:30:19.812Z,56.37
2017-06-12T04:31:29.847Z,56.57
2017-06-12T04:32:39.882Z,56.66
2017-06-12T04:33:50.220Z,56.85
2017-06-12T04:35:00.581Z,56.79
2017-06-12T04:36:10.620Z,56.76
2017-06-12T04:37:20.404Z,56.59
2017-06-12T04:38:30.758Z,56.88
2017-06-12T04:39:41.102Z,56.21
2017-06-12T04:40:51.452Z,56.3
2017-06-12T04:42:01.798Z,56.14
2017-06-12T04:43:11.895Z,56.62
2017-06-12T04:44:22.251Z,56.62
2017-06-12T04:45:32.274Z,55.94
2017-06-12T04:46:42.669Z,55.98
2017-06-12T04:47:52.697Z,55.98
2017-06-12T04:49:02.734Z,55.88
2017-06-12T04:50:12.454Z,55.78
2017-06-12T04:51:22.800Z,56.1
2017-06-12T04:52:33.148Z,55.81
2017-06-12T04:53:43.521Z,56.1
2017-06-12T04:54:53.910Z,55.65
2017-06-12T04:56:04.285Z,55.74
2017-06-12T04:57:14.837Z,55.93
2017-06-12T04:58:24.865Z,55.93
2017-06-12T04:59:34.580Z,55.74
2017-06-12T05:00:44.932Z,56.03
2017-06-12T05:01:55.003Z,55.74
2017-06-12T05:03:05.354Z,56.1
2017-06-12T05:04:15.702Z,56.2
2017-06-12T05:05:26.050Z,55.81
2017-06-12T05:06:36.431Z,55.93
2017-06-12T05:07:46.462Z,56.03
2017-06-12T05:08:56.802Z,56.03
2017-06-12T05:10:07.166Z,55.83
2017-06-12T05:11:17.207Z,56.03
2017-06-12T05:12:27.594Z,55.57
2017-06-12T05:13:37.945Z,55.57
2017-06-12T05:14:48.301Z,55.38
2017-06-12T05:15:58.334Z,55.31
2017-06-12T05:17:08.691Z,55.02
2017-06-12T05:18:19.196Z,54.27
2017-06-12T05:19:29.561Z,53.36
2017-06-12T05:20:39.913Z,51.76
2017-06-12T05:21:50.264Z,51.67
2017-06-12T05:23:00.611Z,51.92
2017-06-12T05:24:10.661Z,52.01
2017-06-12T05:25:21.009Z,51.23
2017-06-12T05:26:31.038Z,53.04
2017-06-12T05:27:41.377Z,54.49
2017-06-12T05:28:51.729Z,55.31
2017-06-12T05:30:01.779Z,55.47
2017-06-12T05:31:12.132Z,55.06
2017-06-12T05:32:22.485Z,53.27
2017-06-12T05:33:32.819Z,51.26
2017-06-12T05:34:43.172Z,50.6
2017-06-12T05:35:53.533Z,49.43
2017-06-12T05:37:03.882Z,48.72
2017-06-12T05:38:13.917Z,49.36
2017-06-12T05:39:24.266Z,49.43
2017-06-12T05:40:34.322Z,48.41
2017-06-12T05:41:44.723Z,48.38
2017-06-12T05:42:55.091Z,49.55
2017-06-12T05:44:05.433Z,50.27
2017-06-12T05:45:15.798Z,49.53
2017-06-12T05:46:26.164Z,51.03
2017-06-12T05:47:36.731Z,52.59
2017-06-12T05:48:46.775Z,53.47
2017-06-12T05:49:56.810Z,52.25
2017-06-12T05:51:07.165Z,52.56
2017-06-12T05:52:17.504Z,53.33
2017-06-12T05:53:27.861Z,53.2
2017-06-12T05:54:38.220Z,51
2017-06-12T05:55:48.564Z,50.42
2017-06-12T05:56:58.597Z,50.09
2017-06-12T05:58:08.949Z,51.17
2017-06-12T05:59:19.030Z,51.22
2017-06-12T06:00:29.071Z,51.15
2017-06-12T06:01:39.114Z,52.2
2017-06-12T06:02:49.460Z,52.76
2017-06-12T06:03:59.859Z,52.52
2017-06-12T06:05:10.261Z,52.91
2017-06-12T06:06:20.622Z,53.28
2017-06-12T06:07:30.968Z,53.06
2017-06-12T06:08:41.315Z,53.55
2017-06-12T06:09:51.667Z,54.11
2017-06-12T06:11:02.073Z,54.08
2017-06-12T06:12:12.426Z,53.3
2017-06-12T06:13:22.462Z,53.88
2017-06-12T06:14:32.807Z,54.64
2017-06-12T06:15:43.154Z,54.59
2017-06-12T06:16:53.550Z,55.08
2017-06-12T06:18:03.597Z,54.95
2017-06-12T06:19:13.648Z,55.8
2017-06-12T06:20:24.002Z,55.77
2017-06-12T06:21:34.361Z,55.29
2017-06-12T06:22:44.691Z,55.94
2017-06-12T06:23:54.742Z,55.82
2017-06-12T06:25:05.090Z,56.11
2017-06-12T06:26:15.135Z,55.6
2017-06-12T06:27:25.474Z,55.99
2017-06-12T06:28:35.888Z,55.89
2017-06-12T06:29:46.265Z,55.79
2017-06-12T06:30:56.613Z,55.69
2017-06-12T06:32:06.965Z,54.72
2017-06-12T06:33:17.331Z,54.09
2017-06-12T06:34:27.729Z,53.21
2017-06-12T06:35:38.086Z,52.48
2017-06-12T06:36:48.436Z,52.73
2017-06-12T06:37:58.153Z,51.51
2017-06-12T06:39:08.200Z,50.98
2017-06-12T06:40:18.532Z,51.32
2017-06-12T06:41:28.564Z,51.25
2017-06-12T06:42:38.923Z,51.34
2017-06-12T06:43:48.965Z,52.1
2017-06-12T06:44:59.307Z,52.76
2017-06-12T06:46:09.661Z,53.52
2017-06-12T06:47:19.688Z,53.33
2017-06-12T06:48:30.044Z,53.62
2017-06-12T06:49:40.401Z,54.17
2017-06-12T06:50:50.443Z,54.05
2017-06-12T06:52:00.835Z,54.35
2017-06-12T06:53:11.179Z,54.61
2017-06-12T06:54:21.218Z,54.79
2017-06-12T06:55:31.586Z,55.08
2017-06-12T06:56:41.646Z,55.73
2017-06-12T06:57:51.784Z,55.61
2017-06-12T06:59:02.136Z,55.8
2017-06-12T07:00:12.177Z,55.87
2017-06-12T07:01:22.543Z,56.14
2017-06-12T07:02:32.903Z,56.01
2017-06-12T07:03:42.986Z,56.18
2017-06-12T07:04:53.334Z,56.47
2017-06-12T07:06:03.722Z,56.64
2017-06-12T07:07:13.759Z,56.84
2017-06-12T07:08:23.786Z,56.9
2017-06-12T07:09:34.186Z,57.39
2017-06-12T07:10:44.531Z,56.68
2017-06-12T07:11:54.555Z,56.41
2017-06-12T07:13:04.591Z,55.8
2017-06-12T07:14:14.329Z,56.29
2017-06-12T07:15:24.405Z,56.29
2017-06-12T07:16:34.432Z,56.68
2017-06-12T07:17:44.781Z,56
2017-06-12T07:18:55.136Z,56.39
2017-06-12T07:20:05.474Z,55.98
2017-06-12T07:21:15.924Z,56.46
2017-06-12T07:22:25.961Z,56.36
2017-06-12T07:23:36.325Z,56.36
2017-06-12T07:24:46.684Z,56.07
2017-06-12T07:25:56.716Z,56.16
2017-06-12T07:27:07.123Z,56.36
2017-06-12T07:28:17.490Z,56.26
2017-06-12T07:29:27.518Z,56.26
2017-06-12T07:30:37.880Z,56.36
2017-06-12T07:31:47.915Z,56.36
2017-06-12T07:32:58.273Z,56.26
2017-06-12T07:34:08.625Z,56.46
2017-06-12T07:35:18.665Z,56.26
2017-06-12T07:36:28.698Z,56.56
2017-06-12T07:37:39.063Z,56.46
2017-06-12T07:38:49.419Z,56.56
2017-06-12T07:39:59.782Z,56.07
2017-06-12T07:41:10.124Z,56.49
2017-06-12T07:42:20.484Z,56.1
2017-06-12T07:43:30.843Z,56.29
2017-06-12T07:44:41.252Z,55.9
2017-06-12T07:45:51.606Z,55.74
2017-06-12T07:47:01.644Z,55.8
2017-06-12T07:48:12.150Z,55.83
2017-06-12T07:49:22.494Z,55.83
2017-06-12T07:50:32.843Z,55.83
2017-06-12T07:51:43.190Z,56.41
2017-06-12T07:52:53.586Z,55.86
2017-06-12T07:54:04.006Z,55.96
2017-06-12T07:55:14.032Z,56.15
2017-06-12T07:56:24.373Z,56.25
2017-06-12T07:57:34.720Z,56.09
2017-06-12T07:58:44.750Z,55.99
2017-06-12T07:59:54.527Z,56.18
2017-06-12T08:01:04.612Z,56.18
2017-06-12T08:02:14.349Z,56.18
2017-06-12T08:03:24.698Z,56.18
2017-06-12T08:04:34.429Z,56.11
2017-06-12T08:05:44.778Z,55.82
2017-06-12T08:06:54.813Z,55.91
2017-06-12T08:08:04.864Z,56.21
2017-06-12T08:09:14.894Z,56.21
2017-06-12T08:10:25.253Z,56.01
2017-06-12T08:11:35.651Z,56.21
2017-06-12T08:12:46.011Z,56.01
2017-06-12T08:13:56.366Z,56.23
2017-06-12T08:15:06.710Z,55.75
2017-06-12T08:16:17.071Z,55.85
2017-06-12T08:17:27.423Z,55.85
2017-06-12T08:18:37.154Z,56.04
2017-06-12T08:19:47.499Z,55.85
2017-06-12T08:20:57.899Z,55.75
2017-06-12T08:22:08.272Z,55.87
2017-06-12T08:23:18.627Z,55.58
2017-06-12T08:24:29.026Z,55.58
2017-06-12T08:25:39.081Z,55.8
2017-06-12T08:26:49.532Z,55.9
2017-06-12T08:27:59.257Z,55.44
2017-06-12T08:29:09.606Z,55.63
2017-06-12T08:30:19.667Z,55.73
2017-06-12T08:31:30.005Z,55.86
2017-06-12T08:32:40.390Z,55.66
2017-06-12T08:33:50.741Z,56.05
2017-06-12T08:35:01.090Z,55.76
2017-06-12T08:36:10.817Z,55.76
2017-06-12T08:37:20.858Z,56.05
2017-06-12T08:38:30.941Z,56.15
2017-06-12T08:39:41.294Z,56.25
2017-06-12T08:40:51.328Z,56.25
2017-06-12T08:42:01.378Z,55.76
2017-06-12T08:43:11.979Z,55.2
2017-06-12T08:44:22.393Z,54.83
2017-06-12T08:45:32.221Z,54.38
2017-06-12T08:46:42.302Z,54.62
2017-06-12T08:47:52.663Z,54.43
2017-06-12T08:49:03.036Z,54.33
2017-06-12T08:50:13.447Z,54.46
2017-06-12T08:51:23.478Z,54.55
2017-06-12T08:52:33.817Z,54.85
2017-06-12T08:53:44.150Z,54.19
2017-06-12T08:54:54.186Z,54.19
2017-06-12T08:56:04.278Z,53.43
2017-06-12T08:57:14.879Z,53.36
2017-06-12T08:58:24.922Z,53.38
2017-06-12T08:59:34.645Z,53.41
2017-06-12T09:00:45.004Z,53.73
2017-06-12T09:01:55.399Z,53.73
2017-06-12T09:03:05.754Z,53.56
2017-06-12T09:04:16.135Z,53.23
2017-06-12T09:05:26.496Z,53.23
2017-06-12T09:06:36.856Z,53.73
2017-06-12T09:07:46.950Z,53.75
2017-06-12T09:08:57.298Z,54.52
2017-06-12T09:10:07.668Z,54.54
2017-06-12T09:11:18.029Z,53.95
2017-06-12T09:12:28.642Z,54.32
2017-06-12T09:13:39.055Z,54.22
2017-06-12T09:14:49.413Z,54.12
2017-06-12T09:15:59.139Z,54.25
2017-06-12T09:17:09.192Z,54.44
2017-06-12T09:18:19.237Z,53.95
2017-06-12T09:19:29.328Z,54.47
2017-06-12T09:20:39.681Z,54.17
2017-06-12T09:21:50.047Z,55.16
2017-06-12T09:23:00.091Z,54.74
2017-06-12T09:24:09.811Z,54.81
2017-06-12T09:25:19.857Z,55.3
2017-06-12T09:26:30.206Z,54.68
2017-06-12T09:27:40.559Z,54.91
2017-06-12T09:28:50.912Z,54.71
2017-06-12T09:30:01.270Z,54.64
2017-06-12T09:31:11.665Z,54.93
2017-06-12T09:32:22.009Z,54.74
2017-06-12T09:33:32.051Z,54.74
2017-06-12T09:34:42.442Z,55.2
2017-06-12T09:35:52.815Z,55.13
2017-06-12T09:37:03.220Z,55.2
2017-06-12T09:38:13.573Z,55.23
2017-06-12T09:39:23.640Z,55.23
2017-06-12T09:40:33.805Z,54.83
2017-06-12T09:41:43.877Z,54.93
2017-06-12T09:42:54.273Z,55.26
2017-06-12T09:44:04.645Z,55.03
2017-06-12T09:45:14.684Z,55.55
2017-06-12T09:46:24.751Z,55.23
2017-06-12T09:47:34.806Z,55.72
2017-06-12T09:48:45.173Z,55.91
2017-06-12T09:49:55.537Z,56.01
2017-06-12T09:51:05.887Z,56.11
2017-06-12T09:52:16.252Z,56.31
2017-06-12T09:53:26.666Z,56.41
2017-06-12T09:54:37.031Z,56.87
2017-06-12T09:55:47.084Z,56.06
2017-06-12T09:56:57.431Z,55.99
2017-06-12T09:58:07.770Z,55.33
2017-06-12T09:59:17.883Z,55.26
2017-06-12T10:00:28.249Z,54.76
2017-06-12T10:01:38.295Z,55.16
2017-06-12T10:02:48.676Z,55.16
2017-06-12T10:03:59.035Z,54.79
2017-06-12T10:05:09.441Z,54.96
2017-06-12T10:06:19.805Z,55.08
2017-06-12T10:07:30.196Z,55.38
2017-06-12T10:08:40.540Z,55.48
2017-06-12T10:09:50.569Z,55.45
2017-06-12T10:11:00.934Z,55.77
2017-06-12T10:12:11.292Z,55.38
2017-06-12T10:13:21.645Z,55.45
2017-06-12T10:14:32.001Z,55.65
2017-06-12T10:15:42.456Z,55.48
2017-06-12T10:16:53.065Z,55.77
2017-06-12T10:18:03.111Z,55.77
2017-06-12T10:19:13.157Z,56.16
2017-06-12T10:20:23.514Z,56.07
2017-06-12T10:21:33.579Z,56.27
2017-06-12T10:22:43.932Z,56.16
2017-06-12T10:23:53.983Z,56.07
2017-06-12T10:25:04.352Z,55.97
2017-06-12T10:26:14.715Z,56.16
2017-06-12T10:27:24.755Z,55.77
2017-06-12T10:28:35.112Z,55.48
2017-06-12T10:29:45.478Z,55.28
2017-06-12T10:30:55.835Z,55.58
2017-06-12T10:32:05.872Z,55.41
2017-06-12T10:33:15.924Z,55.7
2017-06-12T10:34:26.329Z,55.41
2017-06-12T10:35:36.686Z,55.53
2017-06-12T10:36:46.094Z,55.33
2017-06-12T10:37:56.461Z,55.14
2017-06-12T10:39:06.502Z,55.33
2017-06-12T10:40:16.922Z,54.97
2017-06-12T10:41:27.265Z,55.16
2017-06-12T10:42:36.984Z,55.26
2017-06-12T10:43:47.020Z,54.87
2017-06-12T10:44:57.377Z,55.26
2017-06-12T10:46:07.789Z,54.87
2017-06-12T10:47:18.145Z,54.87
2017-06-12T10:48:28.513Z,55.29
2017-06-12T10:49:38.859Z,54.99
2017-06-12T10:50:48.922Z,55.19
2017-06-12T10:51:59.324Z,55.02
2017-06-12T10:53:09.687Z,55.02
2017-06-12T10:54:20.051Z,55.32
2017-06-12T10:55:30.107Z,54.9
2017-06-12T10:56:40.479Z,54.93
2017-06-12T10:57:50.582Z,55.12
2017-06-12T10:59:00.934Z,55.22
2017-06-12T11:00:10.988Z,54.93
2017-06-12T11:01:21.363Z,55.05
2017-06-12T11:02:31.730Z,55.05
2017-06-12T11:03:42.132Z,55.15
2017-06-12T11:04:52.493Z,55.24
2017-06-12T11:06:02.525Z,55.24
2017-06-12T11:07:12.889Z,54.95
2017-06-12T11:08:22.638Z,55.35
2017-06-12T11:09:32.729Z,55.44
2017-06-12T11:10:42.791Z,55.44
2017-06-12T11:11:53.166Z,55.44
2017-06-12T11:13:03.519Z,55.35
2017-06-12T11:14:13.888Z,55.18
2017-06-12T11:15:24.280Z,55.27
2017-06-12T11:16:34.631Z,54.97
2017-06-12T11:17:44.996Z,55.18
2017-06-12T11:18:55.044Z,55.1
2017-06-12T11:20:05.611Z,55.07
2017-06-12T11:21:16.028Z,55.2
2017-06-12T11:22:26.394Z,55.2
2017-06-12T11:23:36.449Z,55.4
2017-06-12T11:24:46.817Z,54.93
2017-06-12T11:25:57.175Z,55.03
2017-06-12T11:27:07.589Z,55.05
2017-06-12T11:28:17.318Z,55.15
2017-06-12T11:29:27.690Z,55.35
2017-06-12T11:30:38.069Z,55.35
2017-06-12T11:31:48.432Z,55.45
2017-06-12T11:32:58.497Z,55.47
2017-06-12T11:34:08.878Z,55.28
2017-06-12T11:35:19.232Z,55.28
2017-06-12T11:36:29.595Z,55.28
2017-06-12T11:37:39.951Z,55.28
2017-06-12T11:38:50.305Z,55.28
2017-06-12T11:40:00.359Z,55.58
2017-06-12T11:41:10.727Z,55.45
2017-06-12T11:42:21.078Z,55.55
2017-06-12T11:43:31.434Z,55.35
2017-06-12T11:44:41.788Z,55.45
2017-06-12T11:45:52.149Z,55.45
2017-06-12T11:47:02.533Z,55.45
2017-06-12T11:48:12.582Z,55.55
2017-06-12T11:49:22.944Z,55.55
2017-06-12T11:50:33.041Z,55.05
2017-06-12T11:51:43.111Z,55.15
2017-06-12T11:52:53.480Z,55.26
2017-06-12T11:54:03.855Z,55.55
2017-06-12T11:55:13.921Z,55.55
2017-06-12T11:56:24.032Z,55.35
2017-06-12T11:57:34.401Z,55.05
2017-06-12T11:58:44.761Z,55.55
2017-06-12T11:59:55.125Z,55.47
2017-06-12T12:01:05.166Z,55.38
2017-06-12T12:02:15.588Z,55.28
2017-06-12T12:03:25.942Z,55.18
2017-06-12T12:04:36.291Z,55.3
2017-06-12T12:05:46.336Z,55.13
2017-06-12T12:06:56.745Z,55.21
2017-06-12T12:08:07.149Z,55.7
2017-06-12T12:09:17.510Z,55.47
2017-06-12T12:10:27.244Z,55.13
2017-06-12T12:11:37.627Z,55.41
2017-06-12T12:12:47.744Z,55.51
2017-06-12T12:13:57.786Z,55.51
2017-06-12T12:15:08.182Z,55.47
2017-06-12T12:16:18.535Z,55.87
2017-06-12T12:17:28.904Z,56.57
2017-06-12T12:18:39.255Z,56.44
2017-06-12T12:19:49.341Z,56.61
2017-06-12T12:20:59.076Z,56.58
2017-06-12T12:22:09.437Z,56.38
2017-06-12T12:23:19.815Z,55
2017-06-12T12:24:29.873Z,54.66
2017-06-12T12:25:40.291Z,54.49
2017-06-12T12:26:50.350Z,53.65
2017-06-12T12:28:00.707Z,53.65
2017-06-12T12:29:11.065Z,54.07
2017-06-12T12:30:21.417Z,54.1
2017-06-12T12:31:31.831Z,53.9
2017-06-12T12:32:42.185Z,54
2017-06-12T12:33:52.527Z,53.58
2017-06-12T12:35:02.577Z,54
2017-06-12T12:36:12.635Z,54.2
2017-06-12T12:37:22.433Z,54.96
2017-06-12T12:38:32.782Z,54.67
2017-06-12T12:39:43.145Z,54.67
2017-06-12T12:40:53.512Z,55.06
2017-06-12T12:42:03.563Z,54.35
2017-06-12T12:43:13.952Z,54.57
2017-06-12T12:44:24.308Z,54.86
2017-06-12T12:45:34.366Z,54.37
2017-06-12T12:46:44.745Z,54.39
2017-06-12T12:47:54.791Z,54.86
2017-06-12T12:49:04.582Z,54.96
2017-06-12T12:50:14.948Z,53.41
2017-06-12T12:51:24.998Z,53.92
2017-06-12T12:52:35.356Z,53.45
2017-06-12T12:53:45.719Z,54.08
2017-06-12T12:54:55.878Z,53.06
2017-06-12T12:56:06.244Z,54.08
2017-06-12T12:57:16.604Z,53.85
2017-06-12T12:58:26.966Z,53.85
2017-06-12T12:59:37.332Z,54.32
2017-06-12T13:00:47.747Z,53.92
2017-06-12T13:01:58.128Z,54.02
2017-06-12T13:03:08.489Z,54.1
2017-06-12T13:04:18.887Z,54.2
2017-06-12T13:05:29.252Z,54.49
2017-06-12T13:06:39.375Z,54.49
2017-06-12T13:07:49.754Z,54.86
2017-06-12T13:09:00.129Z,53.97
2017-06-12T13:10:10.197Z,54.07
2017-06-12T13:11:20.243Z,53.58
2017-06-12T13:12:30.653Z,54
2017-06-12T13:13:40.718Z,54.2
2017-06-12T13:14:51.090Z,54.02
2017-06-12T13:16:01.127Z,53.92
2017-06-12T13:17:11.491Z,54.02
2017-06-12T13:18:21.954Z,53.7
2017-06-12T13:19:31.680Z,53.7
2017-06-12T13:20:41.421Z,54
2017-06-12T13:21:51.470Z,54.1
2017-06-12T13:23:01.526Z,53.97
2017-06-12T13:24:11.002Z,53.8
2017-06-12T13:25:21.039Z,53.78
2017-06-12T13:26:31.406Z,53.67
2017-06-12T13:27:41.163Z,53.97
2017-06-12T13:28:51.520Z,53.95
2017-06-12T13:30:01.926Z,54.05
2017-06-12T13:31:11.975Z,54.81
2017-06-12T13:32:22.354Z,54.61
2017-06-12T13:33:32.391Z,54.98
2017-06-12T13:34:42.777Z,55.45
2017-06-12T13:35:52.867Z,55.33
2017-06-12T13:37:02.938Z,54.36
2017-06-12T13:38:13.294Z,54.19
2017-06-12T13:39:23.644Z,53.63
2017-06-12T13:40:33.706Z,53.72
2017-06-12T13:41:44.115Z,53.25
2017-06-12T13:42:54.461Z,52.69
2017-06-12T13:44:04.823Z,53.5
2017-06-12T13:45:14.873Z,54.1
2017-06-12T13:46:25.227Z,54.07
2017-06-12T13:47:35.638Z,54.94
2017-06-12T13:48:45.982Z,54.42
2017-06-12T13:49:56.026Z,54.61
2017-06-12T13:51:06.073Z,54.88
2017-06-12T13:52:16.122Z,54.49
2017-06-12T13:53:26.233Z,54.02
2017-06-12T13:54:36.606Z,54.84
2017-06-12T13:55:46.666Z,54.91
2017-06-12T13:56:56.714Z,54.32
2017-06-12T13:58:06.775Z,53.89
2017-06-12T13:59:16.875Z,53.92
2017-06-12T14:00:26.938Z,54.05
2017-06-12T14:01:36.985Z,53.95
2017-06-12T14:02:47.351Z,54.71
2017-06-12T14:03:57.712Z,55.47
2017-06-12T14:05:08.134Z,55.26
2017-06-12T14:06:18.191Z,54.66
2017-06-12T14:07:28.538Z,54.66
2017-06-12T14:08:38.921Z,54.59
2017-06-12T14:09:49.291Z,54.96
2017-06-12T14:10:59.702Z,55.13
2017-06-12T14:12:10.079Z,55
2017-06-12T14:13:20.477Z,55.07
2017-06-12T14:14:30.865Z,54.97
2017-06-12T14:15:41.206Z,55.07
2017-06-12T14:16:51.317Z,55.07
2017-06-12T14:18:01.691Z,55.54
2017-06-12T14:19:12.062Z,55.74
2017-06-12T14:20:22.424Z,56.3
2017-06-12T14:21:32.778Z,56.27
2017-06-12T14:22:42.880Z,56.05
2017-06-12T14:23:52.941Z,56.52
2017-06-12T14:25:03.287Z,56.32
2017-06-12T14:26:13.647Z,56.22
2017-06-12T14:27:24.003Z,55.73
2017-06-12T14:28:34.414Z,55.14
2017-06-12T14:29:44.827Z,55.07
2017-06-12T14:30:55.187Z,55.16
2017-06-12T14:32:05.548Z,54.9
2017-06-12T14:33:15.910Z,54.99
2017-06-12T14:34:26.336Z,54.8
2017-06-12T14:35:36.710Z,54.8
2017-06-12T14:36:46.757Z,54.21
2017-06-12T14:37:57.131Z,54.13
2017-06-12T14:39:07.497Z,54.53
2017-06-12T14:40:17.846Z,54.82
2017-06-12T14:41:28.204Z,55.02
2017-06-12T14:42:38.586Z,55.19
2017-06-12T14:43:48.968Z,55.29
2017-06-12T14:44:59.374Z,54.99
2017-06-12T14:46:09.503Z,54.8
2017-06-12T14:47:19.860Z,54.6
2017-06-12T14:48:29.917Z,53.44
2017-06-12T14:49:39.670Z,53.67
2017-06-12T14:50:50.018Z,53.79
2017-06-12T14:52:00.446Z,53.79
2017-06-12T14:53:10.819Z,53.81
2017-06-12T14:54:21.187Z,53.72
2017-06-12T14:55:31.237Z,54.48
2017-06-12T14:56:41.580Z,54.65
2017-06-12T14:57:51.986Z,54.75
2017-06-12T14:59:02.357Z,54.85
2017-06-12T15:00:12.916Z,54.33
2017-06-12T15:01:23.295Z,54.72
2017-06-12T15:02:33.679Z,54.82
2017-06-12T15:03:44.075Z,54.63
2017-06-12T15:04:54.158Z,54.55
2017-06-12T15:06:04.530Z,54.53
2017-06-12T15:07:14.914Z,54.75
2017-06-12T15:08:24.665Z,54.72
2017-06-12T15:09:35.115Z,54.46
2017-06-12T15:10:45.189Z,54.53
2017-06-12T15:11:55.583Z,54.46
2017-06-12T15:13:05.971Z,54.93
2017-06-12T15:14:15.741Z,55.02
2017-06-12T15:15:26.164Z,54.72
2017-06-12T15:16:36.602Z,54.82
2017-06-12T15:17:46.973Z,55.22
2017-06-12T15:18:57.352Z,54.8
2017-06-12T15:20:07.437Z,54.43
2017-06-12T15:21:17.529Z,54.26
2017-06-12T15:22:27.594Z,54.55
2017-06-12T15:23:37.984Z,54.26
2017-06-12T15:24:48.355Z,54.26
2017-06-12T15:25:58.727Z,54.46
2017-06-12T15:27:09.150Z,54.43
2017-06-12T15:28:19.518Z,54.26
2017-06-12T15:29:29.585Z,54.36
2017-06-12T15:30:40.005Z,54.55
2017-06-12T15:31:50.380Z,54.16
2017-06-12T15:33:00.799Z,54.55
2017-06-12T15:34:11.161Z,54.63
2017-06-12T15:35:21.521Z,54.55
2017-06-12T15:36:31.596Z,54.46
2017-06-12T15:37:41.973Z,54.82
2017-06-12T15:38:52.395Z,54.93